sensor_id;sensor_type;location;lat;lon;timestamp;P1;durP1;ratioP1;P2;durP2;ratioP2
70806;SDS011;58882;52.170;5.386;2022-07-05T00:00:53;6.43;;;2.08;;
70806;SDS011;58882;52.170;5.386;2022-07-05T00:03:33;4.78;;;1.90;;
70806;SDS011;58882;52.170;5.386;2022-07-05T00:06:20;6.82;;;2.10;;
70806;SDS011;58882;52.170;5.386;2022-07-05T00:09:01;4.22;;;2.15;;
70806;SDS011;58882;52.170;5.386;2022-07-05T00:11:47;3.20;;;1.77;;
70806;SDS011;58882;52.170;5.386;2022-07-05T00:14:28;4.80;;;2.03;;
70806;SDS011;58882;52.170;5.386;2022-07-05T00:17:15;5.70;;;2.10;;
70806;SDS011;58882;52.170;5.386;2022-07-05T00:19:56;4.35;;;2.10;;
70806;SDS011;58882;52.170;5.386;2022-07-05T00:22:49;5.20;;;2.25;;
70806;SDS011;58882;52.170;5.386;2022-07-05T00:25:30;4.30;;;1.83;;
70806;SDS011;58882;52.170;5.386;2022-07-05T00:28:16;4.53;;;2.08;;
70806;SDS011;58882;52.170;5.386;2022-07-05T00:30:56;5.38;;;2.05;;
70806;SDS011;58882;52.170;5.386;2022-07-05T00:33:43;4.63;;;2.10;;
70806;SDS011;58882;52.170;5.386;2022-07-05T00:36:23;6.38;;;2.20;;
70806;SDS011;58882;52.170;5.386;2022-07-05T00:39:14;5.05;;;2.33;;
70806;SDS011;58882;52.170;5.386;2022-07-05T00:41:55;6.45;;;2.28;;
70806;SDS011;58882;52.170;5.386;2022-07-05T00:44:41;5.80;;;2.20;;
70806;SDS011;58882;52.170;5.386;2022-07-05T00:47:21;3.67;;;1.92;;
70806;SDS011;58882;52.170;5.386;2022-07-05T00:50:15;3.85;;;1.90;;
70806;SDS011;58882;52.170;5.386;2022-07-05T00:52:56;4.68;;;1.85;;
70806;SDS011;58882;52.170;5.386;2022-07-05T00:55:43;7.35;;;2.13;;
70806;SDS011;58882;52.170;5.386;2022-07-05T00:58:24;5.55;;;1.95;;
70806;SDS011;58882;52.170;5.386;2022-07-05T01:01:10;4.15;;;1.83;;
70806;SDS011;58882;52.170;5.386;2022-07-05T01:03:50;3.00;;;1.88;;
70806;SDS011;58882;52.170;5.386;2022-07-05T01:06:42;5.93;;;2.28;;
70806;SDS011;58882;52.170;5.386;2022-07-05T01:09:25;4.60;;;2.10;;
70806;SDS011;58882;52.170;5.386;2022-07-05T01:12:11;4.40;;;2.00;;
70806;SDS011;58882;52.170;5.386;2022-07-05T01:14:53;5.03;;;2.13;;
70806;SDS011;58882;52.170;5.386;2022-07-05T01:17:47;4.32;;;2.20;;
70806;SDS011;58882;52.170;5.386;2022-07-05T01:20:28;6.70;;;2.00;;
70806;SDS011;58882;52.170;5.386;2022-07-05T01:23:08;5.30;;;2.17;;
70806;SDS011;58882;52.170;5.386;2022-07-05T01:25:54;4.18;;;2.10;;
70806;SDS011;58882;52.170;5.386;2022-07-05T01:28:36;5.57;;;2.28;;
70806;SDS011;58882;52.170;5.386;2022-07-05T01:31:23;5.70;;;1.95;;
70806;SDS011;58882;52.170;5.386;2022-07-05T01:34:04;4.93;;;2.30;;
70806;SDS011;58882;52.170;5.386;2022-07-05T01:36:51;5.50;;;2.22;;
70806;SDS011;58882;52.170;5.386;2022-07-05T01:39:32;4.90;;;2.10;;
70806;SDS011;58882;52.170;5.386;2022-07-05T01:42:26;5.03;;;1.90;;
70806;SDS011;58882;52.170;5.386;2022-07-05T01:44:59;6.60;;;2.25;;
70806;SDS011;58882;52.170;5.386;2022-07-05T01:47:53;3.88;;;2.05;;
70806;SDS011;58882;52.170;5.386;2022-07-05T01:50:42;5.70;;;2.45;;
70806;SDS011;58882;52.170;5.386;2022-07-05T01:53:43;7.68;;;2.50;;
70806;SDS011;58882;52.170;5.386;2022-07-05T01:56:26;5.22;;;2.20;;
70806;SDS011;58882;52.170;5.386;2022-07-05T01:59:12;6.97;;;2.17;;
70806;SDS011;58882;52.170;5.386;2022-07-05T02:01:46;4.97;;;2.05;;
70806;SDS011;58882;52.170;5.386;2022-07-05T02:04:39;3.88;;;1.88;;
70806;SDS011;58882;52.170;5.386;2022-07-05T02:07:15;4.97;;;2.10;;
70806;SDS011;58882;52.170;5.386;2022-07-05T02:10:08;4.22;;;2.20;;
70806;SDS011;58882;52.170;5.386;2022-07-05T02:12:49;7.60;;;3.10;;
70806;SDS011;58882;52.170;5.386;2022-07-05T02:15:36;7.50;;;3.10;;
70806;SDS011;58882;52.170;5.386;2022-07-05T02:18:19;6.82;;;2.78;;
70806;SDS011;58882;52.170;5.386;2022-07-05T02:21:05;5.60;;;2.80;;
70806;SDS011;58882;52.170;5.386;2022-07-05T02:23:48;4.32;;;2.20;;
70806;SDS011;58882;52.170;5.386;2022-07-05T02:26:38;4.30;;;2.17;;
70806;SDS011;58882;52.170;5.386;2022-07-05T02:32:06;4.55;;;2.20;;
70806;SDS011;58882;52.170;5.386;2022-07-05T02:34:47;6.43;;;2.25;;
70806;SDS011;58882;52.170;5.386;2022-07-05T02:40:15;3.35;;;1.90;;
70806;SDS011;58882;52.170;5.386;2022-07-05T02:43:01;4.05;;;2.22;;
70806;SDS011;58882;52.170;5.386;2022-07-05T02:45:43;6.40;;;2.45;;
70806;SDS011;58882;52.170;5.386;2022-07-05T02:48:31;7.07;;;2.72;;
70806;SDS011;58882;52.170;5.386;2022-07-05T02:51:13;7.97;;;2.75;;
70806;SDS011;58882;52.170;5.386;2022-07-05T02:54:06;4.95;;;2.20;;
70806;SDS011;58882;52.170;5.386;2022-07-05T02:56:40;5.45;;;2.25;;
70806;SDS011;58882;52.170;5.386;2022-07-05T02:59:34;5.78;;;2.15;;
70806;SDS011;58882;52.170;5.386;2022-07-05T03:02:15;4.43;;;2.35;;
70806;SDS011;58882;52.170;5.386;2022-07-05T03:05:02;6.43;;;2.33;;
70806;SDS011;58882;52.170;5.386;2022-07-05T03:07:37;6.97;;;2.65;;
70806;SDS011;58882;52.170;5.386;2022-07-05T03:10:33;5.53;;;2.67;;
70806;SDS011;58882;52.170;5.386;2022-07-05T03:13:07;8.02;;;2.90;;
70806;SDS011;58882;52.170;5.386;2022-07-05T03:16:00;4.78;;;2.50;;
70806;SDS011;58882;52.170;5.386;2022-07-05T03:18:41;5.60;;;2.60;;
70806;SDS011;58882;52.170;5.386;2022-07-05T03:21:28;5.00;;;2.60;;
70806;SDS011;58882;52.170;5.386;2022-07-05T03:24:09;7.20;;;2.40;;
70806;SDS011;58882;52.170;5.386;2022-07-05T03:26:55;4.88;;;2.42;;
70806;SDS011;58882;52.170;5.386;2022-07-05T03:29:37;6.88;;;2.60;;
70806;SDS011;58882;52.170;5.386;2022-07-05T03:32:24;8.10;;;2.63;;
70806;SDS011;58882;52.170;5.386;2022-07-05T03:35:06;4.78;;;2.67;;
70806;SDS011;58882;52.170;5.386;2022-07-05T03:37:54;7.22;;;2.90;;
70806;SDS011;58882;52.170;5.386;2022-07-05T03:40:35;6.03;;;2.63;;
70806;SDS011;58882;52.170;5.386;2022-07-05T03:43:30;9.05;;;2.33;;
70806;SDS011;58882;52.170;5.386;2022-07-05T03:46:11;9.90;;;3.05;;
70806;SDS011;58882;52.170;5.386;2022-07-05T03:48:57;6.22;;;2.83;;
70806;SDS011;58882;52.170;5.386;2022-07-05T03:51:31;5.47;;;2.70;;
70806;SDS011;58882;52.170;5.386;2022-07-05T03:54:24;6.95;;;2.85;;
70806;SDS011;58882;52.170;5.386;2022-07-05T03:57:05;8.45;;;3.35;;
70806;SDS011;58882;52.170;5.386;2022-07-05T03:59:52;11.32;;;3.40;;
70806;SDS011;58882;52.170;5.386;2022-07-05T04:02:26;6.63;;;3.08;;
70806;SDS011;58882;52.170;5.386;2022-07-05T04:05:20;5.28;;;2.88;;
70806;SDS011;58882;52.170;5.386;2022-07-05T04:07:54;8.98;;;3.17;;
70806;SDS011;58882;52.170;5.386;2022-07-05T04:10:50;5.60;;;3.05;;
70806;SDS011;58882;52.170;5.386;2022-07-05T04:13:24;7.30;;;2.95;;
70806;SDS011;58882;52.170;5.386;2022-07-05T04:16:17;7.03;;;2.83;;
70806;SDS011;58882;52.170;5.386;2022-07-05T04:19:01;8.40;;;3.22;;
70806;SDS011;58882;52.170;5.386;2022-07-05T04:21:47;8.98;;;3.20;;
70806;SDS011;58882;52.170;5.386;2022-07-05T04:24:28;9.15;;;3.42;;
70806;SDS011;58882;52.170;5.386;2022-07-05T04:27:52;7.38;;;3.20;;
70806;SDS011;58882;52.170;5.386;2022-07-05T04:30:36;7.57;;;3.67;;
70806;SDS011;58882;52.170;5.386;2022-07-05T04:33:24;8.00;;;3.40;;
70806;SDS011;58882;52.170;5.386;2022-07-05T04:35:58;8.63;;;3.65;;
70806;SDS011;58882;52.170;5.386;2022-07-05T04:38:54;7.80;;;3.53;;
70806;SDS011;58882;52.170;5.386;2022-07-05T04:41:30;7.00;;;3.83;;
70806;SDS011;58882;52.170;5.386;2022-07-05T04:44:24;7.00;;;3.22;;
70806;SDS011;58882;52.170;5.386;2022-07-05T04:47:05;7.95;;;3.67;;
70806;SDS011;58882;52.170;5.386;2022-07-05T04:49:53;7.88;;;3.25;;
70806;SDS011;58882;52.170;5.386;2022-07-05T04:52:34;8.15;;;3.22;;
70806;SDS011;58882;52.170;5.386;2022-07-05T04:55:27;10.10;;;3.70;;
70806;SDS011;58882;52.170;5.386;2022-07-05T04:58:08;10.07;;;4.30;;
70806;SDS011;58882;52.170;5.386;2022-07-05T05:00:54;7.32;;;4.00;;
70806;SDS011;58882;52.170;5.386;2022-07-05T05:03:35;9.18;;;4.25;;
70806;SDS011;58882;52.170;5.386;2022-07-05T05:06:21;16.25;;;4.90;;
70806;SDS011;58882;52.170;5.386;2022-07-05T05:09:02;9.63;;;4.03;;
70806;SDS011;58882;52.170;5.386;2022-07-05T05:11:49;10.50;;;4.38;;
70806;SDS011;58882;52.170;5.386;2022-07-05T05:14:30;9.07;;;4.32;;
70806;SDS011;58882;52.170;5.386;2022-07-05T05:17:16;9.73;;;4.43;;
70806;SDS011;58882;52.170;5.386;2022-07-05T05:19:57;9.38;;;4.53;;
70806;SDS011;58882;52.170;5.386;2022-07-05T05:22:44;7.70;;;3.90;;
70806;SDS011;58882;52.170;5.386;2022-07-05T05:25:25;8.88;;;4.15;;
70806;SDS011;58882;52.170;5.386;2022-07-05T05:28:11;8.02;;;4.63;;
70806;SDS011;58882;52.170;5.386;2022-07-05T05:30:52;8.38;;;4.18;;
70806;SDS011;58882;52.170;5.386;2022-07-05T05:33:38;10.07;;;4.82;;
70806;SDS011;58882;52.170;5.386;2022-07-05T05:36:19;8.90;;;4.38;;
70806;SDS011;58882;52.170;5.386;2022-07-05T05:39:13;10.07;;;5.03;;
70806;SDS011;58882;52.170;5.386;2022-07-05T05:42:07;7.78;;;4.20;;
70806;SDS011;58882;52.170;5.386;2022-07-05T05:44:47;8.13;;;4.10;;
70806;SDS011;58882;52.170;5.386;2022-07-05T05:47:33;9.43;;;3.92;;
70806;SDS011;58882;52.170;5.386;2022-07-05T05:53:14;6.97;;;4.00;;
70806;SDS011;58882;52.170;5.386;2022-07-05T05:55:59;7.13;;;3.25;;
70806;SDS011;58882;52.170;5.386;2022-07-05T05:58:45;6.30;;;2.95;;
70806;SDS011;58882;52.170;5.386;2022-07-05T06:01:26;10.43;;;2.58;;
70806;SDS011;58882;52.170;5.386;2022-07-05T06:04:12;7.75;;;2.67;;
70806;SDS011;58882;52.170;5.386;2022-07-05T06:06:52;8.90;;;3.13;;
70806;SDS011;58882;52.170;5.386;2022-07-05T06:09:39;10.13;;;3.40;;
70806;SDS011;58882;52.170;5.386;2022-07-05T06:12:20;10.80;;;2.95;;
70806;SDS011;58882;52.170;5.386;2022-07-05T06:15:07;8.45;;;3.20;;
70806;SDS011;58882;52.170;5.386;2022-07-05T06:17:48;5.13;;;2.60;;
70806;SDS011;58882;52.170;5.386;2022-07-05T06:20:35;8.38;;;2.80;;
70806;SDS011;58882;52.170;5.386;2022-07-05T06:23:17;4.88;;;2.40;;
70806;SDS011;58882;52.170;5.386;2022-07-05T06:26:03;6.15;;;2.40;;
70806;SDS011;58882;52.170;5.386;2022-07-05T06:28:43;5.82;;;2.50;;
70806;SDS011;58882;52.170;5.386;2022-07-05T06:31:30;6.53;;;2.30;;
70806;SDS011;58882;52.170;5.386;2022-07-05T06:34:11;4.72;;;2.10;;
70806;SDS011;58882;52.170;5.386;2022-07-05T06:36:57;11.48;;;2.53;;
70806;SDS011;58882;52.170;5.386;2022-07-05T06:39:51;3.80;;;1.65;;
70806;SDS011;58882;52.170;5.386;2022-07-05T06:42:32;3.72;;;1.75;;
70806;SDS011;58882;52.170;5.386;2022-07-05T06:45:20;3.88;;;1.58;;
70806;SDS011;58882;52.170;5.386;2022-07-05T06:47:54;5.22;;;2.33;;
70806;SDS011;58882;52.170;5.386;2022-07-05T06:50:48;2.67;;;1.60;;
70806;SDS011;58882;52.170;5.386;2022-07-05T06:53:29;4.25;;;1.90;;
70806;SDS011;58882;52.170;5.386;2022-07-05T06:56:22;3.88;;;1.60;;
70806;SDS011;58882;52.170;5.386;2022-07-05T07:02:28;4.75;;;1.85;;
70806;SDS011;58882;52.170;5.386;2022-07-05T07:05:09;4.30;;;1.77;;
70806;SDS011;58882;52.170;5.386;2022-07-05T07:07:56;3.13;;;1.55;;
70806;SDS011;58882;52.170;5.386;2022-07-05T07:10:49;5.05;;;1.77;;
70806;SDS011;58882;52.170;5.386;2022-07-05T07:13:42;3.63;;;1.40;;
70806;SDS011;58882;52.170;5.386;2022-07-05T07:16:23;3.10;;;1.42;;
70806;SDS011;58882;52.170;5.386;2022-07-05T07:19:16;2.10;;;1.58;;
70806;SDS011;58882;52.170;5.386;2022-07-05T07:21:50;2.35;;;1.50;;
70806;SDS011;58882;52.170;5.386;2022-07-05T07:24:43;2.78;;;1.42;;
70806;SDS011;58882;52.170;5.386;2022-07-05T07:27:24;6.38;;;1.80;;
70806;SDS011;58882;52.170;5.386;2022-07-05T07:30:11;2.78;;;1.50;;
70806;SDS011;58882;52.170;5.386;2022-07-05T07:32:53;4.03;;;1.80;;
70806;SDS011;58882;52.170;5.386;2022-07-05T07:35:40;3.42;;;1.65;;
70806;SDS011;58882;52.170;5.386;2022-07-05T07:38:27;5.50;;;1.90;;
70806;SDS011;58882;52.170;5.386;2022-07-05T07:41:21;2.83;;;1.63;;
70806;SDS011;58882;52.170;5.386;2022-07-05T07:43:55;2.85;;;1.58;;
70806;SDS011;58882;52.170;5.386;2022-07-05T07:46:48;2.92;;;1.80;;
70806;SDS011;58882;52.170;5.386;2022-07-05T07:49:30;2.63;;;1.38;;
70806;SDS011;58882;52.170;5.386;2022-07-05T07:52:16;3.55;;;1.20;;
70806;SDS011;58882;52.170;5.386;2022-07-05T07:54:57;3.72;;;1.85;;
70806;SDS011;58882;52.170;5.386;2022-07-05T07:57:43;2.08;;;1.40;;
70806;SDS011;58882;52.170;5.386;2022-07-05T08:00:24;4.40;;;1.92;;
70806;SDS011;58882;52.170;5.386;2022-07-05T08:03:18;2.60;;;1.48;;
70806;SDS011;58882;52.170;5.386;2022-07-05T08:05:52;4.93;;;1.60;;
70806;SDS011;58882;52.170;5.386;2022-07-05T08:08:45;3.03;;;1.52;;
70806;SDS011;58882;52.170;5.386;2022-07-05T08:11:27;3.70;;;1.40;;
70806;SDS011;58882;52.170;5.386;2022-07-05T08:14:17;4.30;;;1.73;;
70806;SDS011;58882;52.170;5.386;2022-07-05T08:16:58;2.97;;;1.50;;
70806;SDS011;58882;52.170;5.386;2022-07-05T08:19:47;2.53;;;1.50;;
70806;SDS011;58882;52.170;5.386;2022-07-05T08:22:47;2.53;;;1.52;;
70806;SDS011;58882;52.170;5.386;2022-07-05T08:25:33;5.15;;;1.90;;
70806;SDS011;58882;52.170;5.386;2022-07-05T08:28:14;3.60;;;1.40;;
70806;SDS011;58882;52.170;5.386;2022-07-05T08:31:00;2.72;;;1.50;;
70806;SDS011;58882;52.170;5.386;2022-07-05T08:33:40;2.92;;;1.73;;
70806;SDS011;58882;52.170;5.386;2022-07-05T08:36:35;2.03;;;1.30;;
70806;SDS011;58882;52.170;5.386;2022-07-05T08:39:28;3.17;;;1.50;;
70806;SDS011;58882;52.170;5.386;2022-07-05T08:42:09;4.82;;;1.30;;
70806;SDS011;58882;52.170;5.386;2022-07-05T08:44:56;2.35;;;1.40;;
70806;SDS011;58882;52.170;5.386;2022-07-05T08:47:39;3.25;;;1.40;;
70806;SDS011;58882;52.170;5.386;2022-07-05T08:50:27;3.45;;;1.38;;
70806;SDS011;58882;52.170;5.386;2022-07-05T08:53:08;3.45;;;1.63;;
70806;SDS011;58882;52.170;5.386;2022-07-05T08:55:55;2.95;;;1.42;;
70806;SDS011;58882;52.170;5.386;2022-07-05T08:58:38;2.47;;;1.52;;
70806;SDS011;58882;52.170;5.386;2022-07-05T09:01:24;3.05;;;1.35;;
70806;SDS011;58882;52.170;5.386;2022-07-05T09:04:06;5.35;;;1.63;;
70806;SDS011;58882;52.170;5.386;2022-07-05T09:06:53;3.92;;;1.40;;
70806;SDS011;58882;52.170;5.386;2022-07-05T09:09:37;2.22;;;1.50;;
70806;SDS011;58882;52.170;5.386;2022-07-05T09:12:25;2.97;;;1.48;;
70806;SDS011;58882;52.170;5.386;2022-07-05T09:15:06;3.03;;;1.38;;
70806;SDS011;58882;52.170;5.386;2022-07-05T09:17:53;2.75;;;1.40;;
70806;SDS011;58882;52.170;5.386;2022-07-05T09:20:34;3.53;;;1.63;;
70806;SDS011;58882;52.170;5.386;2022-07-05T09:23:20;2.20;;;1.30;;
70806;SDS011;58882;52.170;5.386;2022-07-05T09:26:03;4.53;;;1.50;;
70806;SDS011;58882;52.170;5.386;2022-07-05T09:28:53;4.22;;;1.50;;
70806;SDS011;58882;52.170;5.386;2022-07-05T09:34:41;2.67;;;1.52;;
70806;SDS011;58882;52.170;5.386;2022-07-05T09:38:02;2.90;;;1.30;;
70806;SDS011;58882;52.170;5.386;2022-07-05T09:40:55;3.08;;;1.35;;
70806;SDS011;58882;52.170;5.386;2022-07-05T09:43:37;2.90;;;1.42;;
70806;SDS011;58882;52.170;5.386;2022-07-05T09:46:28;3.85;;;1.55;;
70806;SDS011;58882;52.170;5.386;2022-07-05T09:49:10;3.55;;;1.52;;
70806;SDS011;58882;52.170;5.386;2022-07-05T09:51:56;4.47;;;1.40;;
70806;SDS011;58882;52.170;5.386;2022-07-05T09:54:37;2.67;;;1.13;;
70806;SDS011;58882;52.170;5.386;2022-07-05T09:57:24;4.15;;;1.30;;
70806;SDS011;58882;52.170;5.386;2022-07-05T10:00:12;3.05;;;1.48;;
70806;SDS011;58882;52.170;5.386;2022-07-05T10:03:00;3.53;;;1.30;;
70806;SDS011;58882;52.170;5.386;2022-07-05T10:05:42;1.60;;;1.23;;
70806;SDS011;58882;52.170;5.386;2022-07-05T10:08:31;3.13;;;1.30;;
70806;SDS011;58882;52.170;5.386;2022-07-05T10:11:12;2.47;;;1.20;;
70806;SDS011;58882;52.170;5.386;2022-07-05T10:14:02;2.55;;;1.23;;
70806;SDS011;58882;52.170;5.386;2022-07-05T10:16:52;1.92;;;1.13;;
70806;SDS011;58882;52.170;5.386;2022-07-05T10:19:53;5.00;;;1.10;;
70806;SDS011;58882;52.170;5.386;2022-07-05T10:22:36;2.08;;;1.20;;
70806;SDS011;58882;52.170;5.386;2022-07-05T10:25:22;3.67;;;1.20;;
70806;SDS011;58882;52.170;5.386;2022-07-05T10:28:03;4.50;;;1.30;;
70806;SDS011;58882;52.170;5.386;2022-07-05T10:30:58;3.78;;;1.33;;
70806;SDS011;58882;52.170;5.386;2022-07-05T10:33:40;2.47;;;1.27;;
70806;SDS011;58882;52.170;5.386;2022-07-05T10:36:27;3.67;;;1.20;;
70806;SDS011;58882;52.170;5.386;2022-07-05T10:39:21;2.97;;;1.10;;
70806;SDS011;58882;52.170;5.386;2022-07-05T10:42:05;3.05;;;1.00;;
70806;SDS011;58882;52.170;5.386;2022-07-05T10:44:53;2.55;;;1.02;;
70806;SDS011;58882;52.170;5.386;2022-07-05T10:47:34;1.75;;;1.00;;
70806;SDS011;58882;52.170;5.386;2022-07-05T10:50:20;3.95;;;1.20;;
70806;SDS011;58882;52.170;5.386;2022-07-05T10:53:02;1.70;;;1.02;;
70806;SDS011;58882;52.170;5.386;2022-07-05T10:55:50;4.60;;;1.20;;
70806;SDS011;58882;52.170;5.386;2022-07-05T10:59:03;2.78;;;0.90;;
70806;SDS011;58882;52.170;5.386;2022-07-05T11:02:05;5.25;;;1.10;;
70806;SDS011;58882;52.170;5.386;2022-07-05T11:04:55;2.55;;;1.30;;
70806;SDS011;58882;52.170;5.386;2022-07-05T11:08:01;4.28;;;1.38;;
70806;SDS011;58882;52.170;5.386;2022-07-05T11:13:59;2.80;;;1.17;;
70806;SDS011;58882;52.170;5.386;2022-07-05T11:16:41;2.92;;;1.20;;
70806;SDS011;58882;52.170;5.386;2022-07-05T11:19:27;2.83;;;0.90;;
70806;SDS011;58882;52.170;5.386;2022-07-05T11:22:08;3.78;;;1.23;;
70806;SDS011;58882;52.170;5.386;2022-07-05T11:24:56;6.60;;;1.33;;
70806;SDS011;58882;52.170;5.386;2022-07-05T11:27:59;4.78;;;1.08;;
70806;SDS011;58882;52.170;5.386;2022-07-05T11:30:59;2.53;;;1.00;;
70806;SDS011;58882;52.170;5.386;2022-07-05T11:33:39;2.85;;;1.10;;
70806;SDS011;58882;52.170;5.386;2022-07-05T11:36:36;1.85;;;0.95;;
70806;SDS011;58882;52.170;5.386;2022-07-05T11:40:25;2.15;;;1.00;;
70806;SDS011;58882;52.170;5.386;2022-07-05T11:42:51;5.18;;;1.20;;
70806;SDS011;58882;52.170;5.386;2022-07-05T11:45:37;1.98;;;1.00;;
70806;SDS011;58882;52.170;5.386;2022-07-05T11:48:19;2.72;;;1.00;;
70806;SDS011;58882;52.170;5.386;2022-07-05T11:51:12;3.17;;;0.90;;
70806;SDS011;58882;52.170;5.386;2022-07-05T11:53:47;4.05;;;1.10;;
70806;SDS011;58882;52.170;5.386;2022-07-05T11:56:56;3.83;;;1.10;;
70806;SDS011;58882;52.170;5.386;2022-07-05T11:59:31;3.40;;;1.10;;
70806;SDS011;58882;52.170;5.386;2022-07-05T12:02:24;3.85;;;1.00;;
70806;SDS011;58882;52.170;5.386;2022-07-05T12:04:58;1.63;;;1.10;;
70806;SDS011;58882;52.170;5.386;2022-07-05T12:07:52;2.53;;;1.13;;
70806;SDS011;58882;52.170;5.386;2022-07-05T12:10:32;3.50;;;1.05;;
70806;SDS011;58882;52.170;5.386;2022-07-05T12:13:45;5.43;;;0.98;;
70806;SDS011;58882;52.170;5.386;2022-07-05T12:16:27;2.88;;;0.95;;
70806;SDS011;58882;52.170;5.386;2022-07-05T12:19:23;2.13;;;0.80;;
70806;SDS011;58882;52.170;5.386;2022-07-05T12:22:04;2.35;;;1.00;;
70806;SDS011;58882;52.170;5.386;2022-07-05T12:24:50;4.38;;;0.95;;
70806;SDS011;58882;52.170;5.386;2022-07-05T12:27:31;4.45;;;0.98;;
70806;SDS011;58882;52.170;5.386;2022-07-05T12:30:23;4.88;;;1.00;;
70806;SDS011;58882;52.170;5.386;2022-07-05T12:33:04;3.42;;;1.40;;
70806;SDS011;58882;52.170;5.386;2022-07-05T12:35:52;2.13;;;0.80;;
70806;SDS011;58882;52.170;5.386;2022-07-05T12:38:40;2.63;;;1.10;;
70806;SDS011;58882;52.170;5.386;2022-07-05T12:41:21;3.88;;;1.00;;
70806;SDS011;58882;52.170;5.386;2022-07-05T12:44:08;3.50;;;0.80;;
70806;SDS011;58882;52.170;5.386;2022-07-05T12:46:49;1.23;;;0.77;;
70806;SDS011;58882;52.170;5.386;2022-07-05T12:49:55;3.65;;;0.95;;
70806;SDS011;58882;52.170;5.386;2022-07-05T12:52:53;3.55;;;1.00;;
70806;SDS011;58882;52.170;5.386;2022-07-05T12:56:21;4.53;;;0.90;;
70806;SDS011;58882;52.170;5.386;2022-07-05T13:00:01;8.65;;;0.95;;
70806;SDS011;58882;52.170;5.386;2022-07-05T13:02:53;2.78;;;1.00;;
70806;SDS011;58882;52.170;5.386;2022-07-05T13:05:35;3.78;;;1.00;;
70806;SDS011;58882;52.170;5.386;2022-07-05T13:08:31;3.35;;;1.10;;
70806;SDS011;58882;52.170;5.386;2022-07-05T13:11:11;4.22;;;0.93;;
70806;SDS011;58882;52.170;5.386;2022-07-05T13:13:58;4.38;;;0.82;;
70806;SDS011;58882;52.170;5.386;2022-07-05T13:16:38;2.78;;;0.95;;
70806;SDS011;58882;52.170;5.386;2022-07-05T13:19:24;2.92;;;0.88;;
70806;SDS011;58882;52.170;5.386;2022-07-05T13:22:05;2.08;;;0.80;;
70806;SDS011;58882;52.170;5.386;2022-07-05T13:24:52;1.83;;;0.90;;
70806;SDS011;58882;52.170;5.386;2022-07-05T13:27:34;2.80;;;0.70;;
70806;SDS011;58882;52.170;5.386;2022-07-05T13:30:21;3.05;;;0.90;;
70806;SDS011;58882;52.170;5.386;2022-07-05T13:33:01;4.13;;;0.90;;
70806;SDS011;58882;52.170;5.386;2022-07-05T13:35:48;3.17;;;1.00;;
70806;SDS011;58882;52.170;5.386;2022-07-05T13:38:34;3.00;;;0.82;;
70806;SDS011;58882;52.170;5.386;2022-07-05T13:41:28;2.13;;;0.70;;
70806;SDS011;58882;52.170;5.386;2022-07-05T13:44:09;0.88;;;0.65;;
70806;SDS011;58882;52.170;5.386;2022-07-05T13:47:03;2.35;;;0.73;;
70806;SDS011;58882;52.170;5.386;2022-07-05T13:49:37;3.60;;;0.85;;
70806;SDS011;58882;52.170;5.386;2022-07-05T13:52:31;1.67;;;0.85;;
70806;SDS011;58882;52.170;5.386;2022-07-05T13:55:11;2.72;;;0.80;;
70806;SDS011;58882;52.170;5.386;2022-07-05T13:57:58;3.05;;;0.95;;
70806;SDS011;58882;52.170;5.386;2022-07-05T14:00:39;4.78;;;1.00;;
70806;SDS011;58882;52.170;5.386;2022-07-05T14:03:26;4.40;;;1.02;;
70806;SDS011;58882;52.170;5.386;2022-07-05T14:06:06;4.45;;;1.00;;
70806;SDS011;58882;52.170;5.386;2022-07-05T14:08:53;2.50;;;0.95;;
70806;SDS011;58882;52.170;5.386;2022-07-05T14:11:47;2.92;;;0.68;;
70806;SDS011;58882;52.170;5.386;2022-07-05T14:14:20;2.70;;;0.90;;
70806;SDS011;58882;52.170;5.386;2022-07-05T14:17:20;2.35;;;0.95;;
70806;SDS011;58882;52.170;5.386;2022-07-05T14:20:00;1.90;;;0.90;;
70806;SDS011;58882;52.170;5.386;2022-07-05T14:22:46;2.22;;;0.70;;
70806;SDS011;58882;52.170;5.386;2022-07-05T14:25:20;4.00;;;0.98;;
70806;SDS011;58882;52.170;5.386;2022-07-05T14:28:14;2.47;;;0.80;;
70806;SDS011;58882;52.170;5.386;2022-07-05T14:30:54;1.17;;;0.80;;
70806;SDS011;58882;52.170;5.386;2022-07-05T14:33:41;3.25;;;1.00;;
70806;SDS011;58882;52.170;5.386;2022-07-05T14:36:21;2.33;;;0.93;;
70806;SDS011;58882;52.170;5.386;2022-07-05T14:39:08;2.85;;;1.00;;
70806;SDS011;58882;52.170;5.386;2022-07-05T14:41:51;2.25;;;0.88;;
70806;SDS011;58882;52.170;5.386;2022-07-05T14:44:38;1.50;;;0.90;;
70806;SDS011;58882;52.170;5.386;2022-07-05T14:47:18;1.70;;;0.90;;
70806;SDS011;58882;52.170;5.386;2022-07-05T14:50:06;2.67;;;0.93;;
70806;SDS011;58882;52.170;5.386;2022-07-05T14:52:46;2.38;;;0.80;;
70806;SDS011;58882;52.170;5.386;2022-07-05T14:55:35;2.83;;;1.05;;
70806;SDS011;58882;52.170;5.386;2022-07-05T14:58:15;2.00;;;0.90;;
70806;SDS011;58882;52.170;5.386;2022-07-05T15:01:02;3.05;;;0.73;;
70806;SDS011;58882;52.170;5.386;2022-07-05T15:03:42;2.38;;;1.00;;
70806;SDS011;58882;52.170;5.386;2022-07-05T15:06:29;1.92;;;0.77;;
70806;SDS011;58882;52.170;5.386;2022-07-05T15:09:09;3.30;;;0.90;;
70806;SDS011;58882;52.170;5.386;2022-07-05T15:11:56;2.10;;;0.90;;
70806;SDS011;58882;52.170;5.386;2022-07-05T15:14:36;2.30;;;0.85;;
70806;SDS011;58882;52.170;5.386;2022-07-05T15:17:23;1.70;;;0.90;;
70806;SDS011;58882;52.170;5.386;2022-07-05T15:20:04;3.58;;;1.20;;
70806;SDS011;58882;52.170;5.386;2022-07-05T15:22:58;2.78;;;0.90;;
70806;SDS011;58882;52.170;5.386;2022-07-05T15:25:38;2.55;;;1.13;;
70806;SDS011;58882;52.170;5.386;2022-07-05T15:28:25;2.95;;;0.90;;
70806;SDS011;58882;52.170;5.386;2022-07-05T15:30:59;1.98;;;0.98;;
70806;SDS011;58882;52.170;5.386;2022-07-05T15:33:53;1.92;;;0.80;;
70806;SDS011;58882;52.170;5.386;2022-07-05T15:36:29;3.38;;;1.17;;
70806;SDS011;58882;52.170;5.386;2022-07-05T15:39:23;3.03;;;1.23;;
70806;SDS011;58882;52.170;5.386;2022-07-05T15:42:05;2.83;;;0.85;;
70806;SDS011;58882;52.170;5.386;2022-07-05T15:44:53;1.80;;;0.80;;
70806;SDS011;58882;52.170;5.386;2022-07-05T15:47:36;1.20;;;0.80;;
70806;SDS011;58882;52.170;5.386;2022-07-05T15:50:30;2.83;;;1.00;;
70806;SDS011;58882;52.170;5.386;2022-07-05T15:53:10;1.70;;;0.90;;
70806;SDS011;58882;52.170;5.386;2022-07-05T15:55:59;2.28;;;1.13;;
70806;SDS011;58882;52.170;5.386;2022-07-05T15:58:40;3.17;;;1.20;;
70806;SDS011;58882;52.170;5.386;2022-07-05T16:01:34;3.88;;;1.15;;
70806;SDS011;58882;52.170;5.386;2022-07-05T16:04:14;3.50;;;1.27;;
70806;SDS011;58882;52.170;5.386;2022-07-05T16:07:01;2.30;;;1.20;;
70806;SDS011;58882;52.170;5.386;2022-07-05T16:09:41;4.10;;;1.20;;
70806;SDS011;58882;52.170;5.386;2022-07-05T16:12:50;2.13;;;1.00;;
70806;SDS011;58882;52.170;5.386;2022-07-05T16:15:30;4.05;;;1.20;;
70806;SDS011;58882;52.170;5.386;2022-07-05T16:18:43;2.25;;;1.10;;
70806;SDS011;58882;52.170;5.386;2022-07-05T16:21:24;3.10;;;1.20;;
70806;SDS011;58882;52.170;5.386;2022-07-05T16:24:11;3.03;;;1.20;;
70806;SDS011;58882;52.170;5.386;2022-07-05T16:26:51;4.22;;;1.23;;
70806;SDS011;58882;52.170;5.386;2022-07-05T16:29:39;3.10;;;1.23;;
70806;SDS011;58882;52.170;5.386;2022-07-05T16:32:33;4.60;;;1.30;;
70806;SDS011;58882;52.170;5.386;2022-07-05T16:35:06;1.90;;;1.00;;
70806;SDS011;58882;52.170;5.386;2022-07-05T16:38:00;4.07;;;1.20;;
70806;SDS011;58882;52.170;5.386;2022-07-05T16:40:54;5.55;;;1.50;;
70806;SDS011;58882;52.170;5.386;2022-07-05T16:43:34;2.67;;;1.00;;
70806;SDS011;58882;52.170;5.386;2022-07-05T16:46:25;3.13;;;1.05;;
70806;SDS011;58882;52.170;5.386;2022-07-05T16:49:06;4.03;;;1.10;;
70806;SDS011;58882;52.170;5.386;2022-07-05T16:51:53;2.95;;;1.02;;
70806;SDS011;58882;52.170;5.386;2022-07-05T16:54:34;2.70;;;1.13;;
70806;SDS011;58882;52.170;5.386;2022-07-05T16:57:21;2.90;;;1.02;;
70806;SDS011;58882;52.170;5.386;2022-07-05T17:00:01;1.95;;;1.02;;